sensor_id;sensor_type;location;lat;lon;timestamp;P1;P2;P0
73623;PMS5003;61921;53.226;-1.296;2023-04-08T00:01:30;18;18;
73623;PMS5003;61921;53.226;-1.296;2023-04-08T00:03:56;16;13;
73623;PMS5003;61921;53.226;-1.296;2023-04-08T00:06:21;17;17;
73623;PMS5003;61921;53.226;-1.296;2023-04-08T00:08:47;18;17;
73623;PMS5003;61921;53.226;-1.296;2023-04-08T00:11:12;21;16;
73623;PMS5003;61921;53.226;-1.296;2023-04-08T00:13:38;16;15;
73623;PMS5003;61921;53.226;-1.296;2023-04-08T00:16:03;17;16;
73623;PMS5003;61921;53.226;-1.296;2023-04-08T00:18:28;21;20;
73623;PMS5003;61921;53.226;-1.296;2023-04-08T00:20:54;24;20;
73623;PMS5003;61921;53.226;-1.296;2023-04-08T00:23:19;23;20;
73623;PMS5003;61921;53.226;-1.296;2023-04-08T00:25:44;21;19;
73623;PMS5003;61921;53.226;-1.296;2023-04-08T00:28:10;29;26;
73623;PMS5003;61921;53.226;-1.296;2023-04-08T00:30:36;20;20;
73623;PMS5003;61921;53.226;-1.296;2023-04-08T00:33:02;22;20;
73623;PMS5003;61921;53.226;-1.296;2023-04-08T00:35:27;36;28;
73623;PMS5003;61921;53.226;-1.296;2023-04-08T00:37:52;27;25;
73623;PMS5003;61921;53.226;-1.296;2023-04-08T00:40:18;26;23;
73623;PMS5003;61921;53.226;-1.296;2023-04-08T00:42:44;25;24;
73623;PMS5003;61921;53.226;-1.296;2023-04-08T00:45:10;28;25;
73623;PMS5003;61921;53.226;-1.296;2023-04-08T00:47:34;24;24;
73623;PMS5003;61921;53.226;-1.296;2023-04-08T00:50:00;26;20;
73623;PMS5003;61921;53.226;-1.296;2023-04-08T00:52:25;25;22;
73623;PMS5003;61921;53.226;-1.296;2023-04-08T00:54:51;20;19;
73623;PMS5003;61921;53.226;-1.296;2023-04-08T00:57:16;19;19;
73623;PMS5003;61921;53.226;-1.296;2023-04-08T00:59:42;23;19;
73623;PMS5003;61921;53.226;-1.296;2023-04-08T01:02:11;23;21;
73623;PMS5003;61921;53.226;-1.296;2023-04-08T01:04:36;22;21;
73623;PMS5003;61921;53.226;-1.296;2023-04-08T01:07:00;19;17;
73623;PMS5003;61921;53.226;-1.296;2023-04-08T01:09:26;22;19;
73623;PMS5003;61921;53.226;-1.296;2023-04-08T01:11:50;21;18;
73623;PMS5003;61921;53.226;-1.296;2023-04-08T01:14:22;23;22;
73623;PMS5003;61921;53.226;-1.296;2023-04-08T01:16:41;25;22;
73623;PMS5003;61921;53.226;-1.296;2023-04-08T01:19:07;25;23;
73623;PMS5003;61921;53.226;-1.296;2023-04-08T01:21:31;23;21;
73623;PMS5003;61921;53.226;-1.296;2023-04-08T01:23:58;28;24;
73623;PMS5003;61921;53.226;-1.296;2023-04-08T01:26:23;24;22;
73623;PMS5003;61921;53.226;-1.296;2023-04-08T01:28:49;27;25;
73623;PMS5003;61921;53.226;-1.296;2023-04-08T01:31:14;22;19;
73623;PMS5003;61921;53.226;-1.296;2023-04-08T01:33:39;23;22;
73623;PMS5003;61921;53.226;-1.296;2023-04-08T01:36:04;24;22;
73623;PMS5003;61921;53.226;-1.296;2023-04-08T01:38:30;19;19;
73623;PMS5003;61921;53.226;-1.296;2023-04-08T01:40:55;24;22;
73623;PMS5003;61921;53.226;-1.296;2023-04-08T01:43:21;27;24;
73623;PMS5003;61921;53.226;-1.296;2023-04-08T01:45:47;18;18;
73623;PMS5003;61921;53.226;-1.296;2023-04-08T01:48:13;24;22;
73623;PMS5003;61921;53.226;-1.296;2023-04-08T01:50:38;24;20;
73623;PMS5003;61921;53.226;-1.296;2023-04-08T01:53:02;25;22;
73623;PMS5003;61921;53.226;-1.296;2023-04-08T01:55:28;22;22;
73623;PMS5003;61921;53.226;-1.296;2023-04-08T01:57:53;27;26;
73623;PMS5003;61921;53.226;-1.296;2023-04-08T02:00:22;21;21;
73623;PMS5003;61921;53.226;-1.296;2023-04-08T02:02:44;25;22;
73623;PMS5003;61921;53.226;-1.296;2023-04-08T02:05:10;25;22;
73623;PMS5003;61921;53.226;-1.296;2023-04-08T02:07:36;26;24;
73623;PMS5003;61921;53.226;-1.296;2023-04-08T02:10:01;19;19;
73623;PMS5003;61921;53.226;-1.296;2023-04-08T02:12:27;23;21;
73623;PMS5003;61921;53.226;-1.296;2023-04-08T02:14:53;25;22;
73623;PMS5003;61921;53.226;-1.296;2023-04-08T02:17:18;21;19;
73623;PMS5003;61921;53.226;-1.296;2023-04-08T02:19:45;22;20;
73623;PMS5003;61921;53.226;-1.296;2023-04-08T02:22:11;23;21;
73623;PMS5003;61921;53.226;-1.296;2023-04-08T02:24:35;23;20;
73623;PMS5003;61921;53.226;-1.296;2023-04-08T02:27:01;21;21;
73623;PMS5003;61921;53.226;-1.296;2023-04-08T02:29:26;26;24;
73623;PMS5003;61921;53.226;-1.296;2023-04-08T02:31:51;24;22;
73623;PMS5003;61921;53.226;-1.296;2023-04-08T02:34:16;27;24;
73623;PMS5003;61921;53.226;-1.296;2023-04-08T02:36:42;24;22;
73623;PMS5003;61921;53.226;-1.296;2023-04-08T02:39:07;21;21;
73623;PMS5003;61921;53.226;-1.296;2023-04-08T02:41:33;21;21;
73623;PMS5003;61921;53.226;-1.296;2023-04-08T02:43:58;25;22;
73623;PMS5003;61921;53.226;-1.296;2023-04-08T02:46:24;25;24;
73623;PMS5003;61921;53.226;-1.296;2023-04-08T02:48:49;34;25;
73623;PMS5003;61921;53.226;-1.296;2023-04-08T02:51:14;30;25;
73623;PMS5003;61921;53.226;-1.296;2023-04-08T02:53:40;23;23;
73623;PMS5003;61921;53.226;-1.296;2023-04-08T02:56:06;27;21;
73623;PMS5003;61921;53.226;-1.296;2023-04-08T02:58:30;25;25;
73623;PMS5003;61921;53.226;-1.296;2023-04-08T03:00:56;29;23;
73623;PMS5003;61921;53.226;-1.296;2023-04-08T03:03:21;27;25;
73623;PMS5003;61921;53.226;-1.296;2023-04-08T03:05:47;24;21;
73623;PMS5003;61921;53.226;-1.296;2023-04-08T03:08:12;22;21;
73623;PMS5003;61921;53.226;-1.296;2023-04-08T03:10:37;23;22;
73623;PMS5003;61921;53.226;-1.296;2023-04-08T03:13:02;21;21;
73623;PMS5003;61921;53.226;-1.296;2023-04-08T03:15:27;20;20;
73623;PMS5003;61921;53.226;-1.296;2023-04-08T03:17:53;19;19;
73623;PMS5003;61921;53.226;-1.296;2023-04-08T03:20:19;23;22;
73623;PMS5003;61921;53.226;-1.296;2023-04-08T03:22:44;23;23;
73623;PMS5003;61921;53.226;-1.296;2023-04-08T03:25:09;24;23;
73623;PMS5003;61921;53.226;-1.296;2023-04-08T03:27:35;24;23;
73623;PMS5003;61921;53.226;-1.296;2023-04-08T03:30:00;24;23;
73623;PMS5003;61921;53.226;-1.296;2023-04-08T03:32:26;26;24;
73623;PMS5003;61921;53.226;-1.296;2023-04-08T03:34:51;23;23;
73623;PMS5003;61921;53.226;-1.296;2023-04-08T03:37:17;29;26;
73623;PMS5003;61921;53.226;-1.296;2023-04-08T03:39:43;28;27;
73623;PMS5003;61921;53.226;-1.296;2023-04-08T03:42:08;28;23;
73623;PMS5003;61921;53.226;-1.296;2023-04-08T03:44:33;28;25;
73623;PMS5003;61921;53.226;-1.296;2023-04-08T03:46:58;32;28;
73623;PMS5003;61921;53.226;-1.296;2023-04-08T03:49:24;28;24;
73623;PMS5003;61921;53.226;-1.296;2023-04-08T03:51:49;23;21;
73623;PMS5003;61921;53.226;-1.296;2023-04-08T03:54:14;23;21;
73623;PMS5003;61921;53.226;-1.296;2023-04-08T03:56:40;28;25;
73623;PMS5003;61921;53.226;-1.296;2023-04-08T03:59:06;21;20;
73623;PMS5003;61921;53.226;-1.296;2023-04-08T04:01:31;23;23;
73623;PMS5003;61921;53.226;-1.296;2023-04-08T04:03:56;26;22;
73623;PMS5003;61921;53.226;-1.296;2023-04-08T04:06:21;32;28;
73623;PMS5003;61921;53.226;-1.296;2023-04-08T04:08:47;29;28;
73623;PMS5003;61921;53.226;-1.296;2023-04-08T04:11:12;25;21;
73623;PMS5003;61921;53.226;-1.296;2023-04-08T04:13:37;31;27;
73623;PMS5003;61921;53.226;-1.296;2023-04-08T04:16:03;27;24;
73623;PMS5003;61921;53.226;-1.296;2023-04-08T04:18:28;26;25;
73623;PMS5003;61921;53.226;-1.296;2023-04-08T04:20:53;31;29;
73623;PMS5003;61921;53.226;-1.296;2023-04-08T04:23:19;32;26;
73623;PMS5003;61921;53.226;-1.296;2023-04-08T04:25:44;31;26;
73623;PMS5003;61921;53.226;-1.296;2023-04-08T04:28:10;24;22;
73623;PMS5003;61921;53.226;-1.296;2023-04-08T04:30:36;25;21;
73623;PMS5003;61921;53.226;-1.296;2023-04-08T04:33:00;26;24;
73623;PMS5003;61921;53.226;-1.296;2023-04-08T04:35:25;21;20;
73623;PMS5003;61921;53.226;-1.296;2023-04-08T04:37:51;26;24;
73623;PMS5003;61921;53.226;-1.296;2023-04-08T04:40:16;24;24;
73623;PMS5003;61921;53.226;-1.296;2023-04-08T04:42:41;27;24;
73623;PMS5003;61921;53.226;-1.296;2023-04-08T04:45:08;29;29;
73623;PMS5003;61921;53.226;-1.296;2023-04-08T04:47:33;28;27;
73623;PMS5003;61921;53.226;-1.296;2023-04-08T04:49:58;34;30;
73623;PMS5003;61921;53.226;-1.296;2023-04-08T04:52:23;33;29;
73623;PMS5003;61921;53.226;-1.296;2023-04-08T04:54:49;33;29;
73623;PMS5003;61921;53.226;-1.296;2023-04-08T04:57:15;41;34;
73623;PMS5003;61921;53.226;-1.296;2023-04-08T04:59:40;33;29;
73623;PMS5003;61921;53.226;-1.296;2023-04-08T05:02:05;30;28;
73623;PMS5003;61921;53.226;-1.296;2023-04-08T05:04:30;28;26;
73623;PMS5003;61921;53.226;-1.296;2023-04-08T05:06:57;37;33;
73623;PMS5003;61921;53.226;-1.296;2023-04-08T05:09:21;27;26;
73623;PMS5003;61921;53.226;-1.296;2023-04-08T05:11:47;24;22;
73623;PMS5003;61921;53.226;-1.296;2023-04-08T05:14:12;28;25;
73623;PMS5003;61921;53.226;-1.296;2023-04-08T05:16:38;28;26;
73623;PMS5003;61921;53.226;-1.296;2023-04-08T05:19:03;27;21;
73623;PMS5003;61921;53.226;-1.296;2023-04-08T05:21:29;24;23;
73623;PMS5003;61921;53.226;-1.296;2023-04-08T05:23:54;28;26;
73623;PMS5003;61921;53.226;-1.296;2023-04-08T05:26:19;28;26;
73623;PMS5003;61921;53.226;-1.296;2023-04-08T05:28:45;23;20;
73623;PMS5003;61921;53.226;-1.296;2023-04-08T05:31:10;26;24;
73623;PMS5003;61921;53.226;-1.296;2023-04-08T05:33:35;30;26;
73623;PMS5003;61921;53.226;-1.296;2023-04-08T05:36:00;27;25;
73623;PMS5003;61921;53.226;-1.296;2023-04-08T05:38:25;28;27;
73623;PMS5003;61921;53.226;-1.296;2023-04-08T05:40:50;26;24;
73623;PMS5003;61921;53.226;-1.296;2023-04-08T05:43:16;33;26;
73623;PMS5003;61921;53.226;-1.296;2023-04-08T05:45:42;32;27;
73623;PMS5003;61921;53.226;-1.296;2023-04-08T05:48:07;31;27;
73623;PMS5003;61921;53.226;-1.296;2023-04-08T05:50:34;41;31;
73623;PMS5003;61921;53.226;-1.296;2023-04-08T05:52:59;30;27;
73623;PMS5003;61921;53.226;-1.296;2023-04-08T05:55:25;28;23;
73623;PMS5003;61921;53.226;-1.296;2023-04-08T05:57:50;34;27;
73623;PMS5003;61921;53.226;-1.296;2023-04-08T06:00:15;33;31;
73623;PMS5003;61921;53.226;-1.296;2023-04-08T06:02:41;35;33;
73623;PMS5003;61921;53.226;-1.296;2023-04-08T06:05:06;30;27;
73623;PMS5003;61921;53.226;-1.296;2023-04-08T06:07:31;30;25;
73623;PMS5003;61921;53.226;-1.296;2023-04-08T06:09:57;31;28;
73623;PMS5003;61921;53.226;-1.296;2023-04-08T06:12:22;33;29;
73623;PMS5003;61921;53.226;-1.296;2023-04-08T06:14:52;32;30;
73623;PMS5003;61921;53.226;-1.296;2023-04-08T06:17:13;34;29;
73623;PMS5003;61921;53.226;-1.296;2023-04-08T06:19:39;32;32;
73623;PMS5003;61921;53.226;-1.296;2023-04-08T06:22:05;31;29;
73623;PMS5003;61921;53.226;-1.296;2023-04-08T06:24:30;27;25;
73623;PMS5003;61921;53.226;-1.296;2023-04-08T06:26:56;23;21;
73623;PMS5003;61921;53.226;-1.296;2023-04-08T06:29:22;30;29;
73623;PMS5003;61921;53.226;-1.296;2023-04-08T06:31:46;27;27;
73623;PMS5003;61921;53.226;-1.296;2023-04-08T06:34:12;37;31;
73623;PMS5003;61921;53.226;-1.296;2023-04-08T06:36:37;38;34;
73623;PMS5003;61921;53.226;-1.296;2023-04-08T06:39:02;36;30;
73623;PMS5003;61921;53.226;-1.296;2023-04-08T06:41:27;45;40;
73623;PMS5003;61921;53.226;-1.296;2023-04-08T06:43:53;46;38;
73623;PMS5003;61921;53.226;-1.296;2023-04-08T06:46:18;46;37;
73623;PMS5003;61921;53.226;-1.296;2023-04-08T06:48:44;40;33;
73623;PMS5003;61921;53.226;-1.296;2023-04-08T06:51:09;41;39;
73623;PMS5003;61921;53.226;-1.296;2023-04-08T06:53:34;38;34;
73623;PMS5003;61921;53.226;-1.296;2023-04-08T06:56:00;42;34;
73623;PMS5003;61921;53.226;-1.296;2023-04-08T06:58:25;39;39;
73623;PMS5003;61921;53.226;-1.296;2023-04-08T07:00:52;44;38;
73623;PMS5003;61921;53.226;-1.296;2023-04-08T07:03:15;38;34;
73623;PMS5003;61921;53.226;-1.296;2023-04-08T07:05:41;40;36;
73623;PMS5003;61921;53.226;-1.296;2023-04-08T07:08:06;37;37;
73623;PMS5003;61921;53.226;-1.296;2023-04-08T07:10:32;38;34;
73623;PMS5003;61921;53.226;-1.296;2023-04-08T07:12:57;35;34;
73623;PMS5003;61921;53.226;-1.296;2023-04-08T07:15:22;38;36;
73623;PMS5003;61921;53.226;-1.296;2023-04-08T07:17:47;40;35;
73623;PMS5003;61921;53.226;-1.296;2023-04-08T07:20:13;41;36;
73623;PMS5003;61921;53.226;-1.296;2023-04-08T07:22:39;35;29;
73623;PMS5003;61921;53.226;-1.296;2023-04-08T07:25:05;34;32;
73623;PMS5003;61921;53.226;-1.296;2023-04-08T07:27:30;35;31;
73623;PMS5003;61921;53.226;-1.296;2023-04-08T07:29:55;40;35;
73623;PMS5003;61921;53.226;-1.296;2023-04-08T07:32:21;32;30;
73623;PMS5003;61921;53.226;-1.296;2023-04-08T07:34:46;36;34;
73623;PMS5003;61921;53.226;-1.296;2023-04-08T07:37:12;34;30;
73623;PMS5003;61921;53.226;-1.296;2023-04-08T07:39:38;32;32;
73623;PMS5003;61921;53.226;-1.296;2023-04-08T07:42:03;32;30;
73623;PMS5003;61921;53.226;-1.296;2023-04-08T07:44:28;32;31;
73623;PMS5003;61921;53.226;-1.296;2023-04-08T07:46:54;42;35;
73623;PMS5003;61921;53.226;-1.296;2023-04-08T07:49:19;38;33;
73623;PMS5003;61921;53.226;-1.296;2023-04-08T07:51:44;34;34;
73623;PMS5003;61921;53.226;-1.296;2023-04-08T07:54:10;38;36;
73623;PMS5003;61921;53.226;-1.296;2023-04-08T07:56:36;30;25;
73623;PMS5003;61921;53.226;-1.296;2023-04-08T07:59:01;28;27;
73623;PMS5003;61921;53.226;-1.296;2023-04-08T08:01:26;32;32;
73623;PMS5003;61921;53.226;-1.296;2023-04-08T08:03:51;31;30;
73623;PMS5003;61921;53.226;-1.296;2023-04-08T08:06:16;30;30;
73623;PMS5003;61921;53.226;-1.296;2023-04-08T08:08:42;36;31;
73623;PMS5003;61921;53.226;-1.296;2023-04-08T08:11:07;33;32;
73623;PMS5003;61921;53.226;-1.296;2023-04-08T08:13:33;36;32;
73623;PMS5003;61921;53.226;-1.296;2023-04-08T08:15:58;32;29;
73623;PMS5003;61921;53.226;-1.296;2023-04-08T08:18:23;31;30;
73623;PMS5003;61921;53.226;-1.296;2023-04-08T08:20:49;46;37;
73623;PMS5003;61921;53.226;-1.296;2023-04-08T08:23:14;35;33;
73623;PMS5003;61921;53.226;-1.296;2023-04-08T08:25:39;30;26;
73623;PMS5003;61921;53.226;-1.296;2023-04-08T08:28:04;31;28;
73623;PMS5003;61921;53.226;-1.296;2023-04-08T08:30:29;25;24;
73623;PMS5003;61921;53.226;-1.296;2023-04-08T08:32:55;33;32;
73623;PMS5003;61921;53.226;-1.296;2023-04-08T08:35:21;30;27;
73623;PMS5003;61921;53.226;-1.296;2023-04-08T08:37:47;34;33;
73623;PMS5003;61921;53.226;-1.296;2023-04-08T08:40:12;32;32;
73623;PMS5003;61921;53.226;-1.296;2023-04-08T08:42:38;36;29;
73623;PMS5003;61921;53.226;-1.296;2023-04-08T08:45:04;36;31;
73623;PMS5003;61921;53.226;-1.296;2023-04-08T08:47:29;44;33;
73623;PMS5003;61921;53.226;-1.296;2023-04-08T08:49:54;31;29;
73623;PMS5003;61921;53.226;-1.296;2023-04-08T08:52:20;36;34;
73623;PMS5003;61921;53.226;-1.296;2023-04-08T08:54:46;44;40;
73623;PMS5003;61921;53.226;-1.296;2023-04-08T08:57:16;41;38;
73623;PMS5003;61921;53.226;-1.296;2023-04-08T08:59:37;41;38;
73623;PMS5003;61921;53.226;-1.296;2023-04-08T09:02:02;36;32;
73623;PMS5003;61921;53.226;-1.296;2023-04-08T09:04:28;40;34;
73623;PMS5003;61921;53.226;-1.296;2023-04-08T09:09:19;43;40;
73623;PMS5003;61921;53.226;-1.296;2023-04-08T09:11:45;46;41;
73623;PMS5003;61921;53.226;-1.296;2023-04-08T09:14:17;45;45;
73623;PMS5003;61921;53.226;-1.296;2023-04-08T09:16:41;41;40;
73623;PMS5003;61921;53.226;-1.296;2023-04-08T09:21:26;47;43;
73623;PMS5003;61921;53.226;-1.296;2023-04-08T09:23:51;48;45;
73623;PMS5003;61921;53.226;-1.296;2023-04-08T09:26:17;47;44;
73623;PMS5003;61921;53.226;-1.296;2023-04-08T09:28:42;44;40;
73623;PMS5003;61921;53.226;-1.296;2023-04-08T09:33:33;39;39;
73623;PMS5003;61921;53.226;-1.296;2023-04-08T09:35:58;52;43;
73623;PMS5003;61921;53.226;-1.296;2023-04-08T09:38:23;46;42;
73623;PMS5003;61921;53.226;-1.296;2023-04-08T09:40:48;39;34;
73623;PMS5003;61921;53.226;-1.296;2023-04-08T09:43:14;40;37;
73623;PMS5003;61921;53.226;-1.296;2023-04-08T09:45:39;34;30;
73623;PMS5003;61921;53.226;-1.296;2023-04-08T09:48:08;42;40;
73623;PMS5003;61921;53.226;-1.296;2023-04-08T09:50:30;32;32;
73623;PMS5003;61921;53.226;-1.296;2023-04-08T09:52:57;31;29;
73623;PMS5003;61921;53.226;-1.296;2023-04-08T09:55:20;35;29;
73623;PMS5003;61921;53.226;-1.296;2023-04-08T09:57:49;39;32;
73623;PMS5003;61921;53.226;-1.296;2023-04-08T10:00:13;28;27;
73623;PMS5003;61921;53.226;-1.296;2023-04-08T10:02:39;22;22;
73623;PMS5003;61921;53.226;-1.296;2023-04-08T10:05:02;25;25;
73623;PMS5003;61921;53.226;-1.296;2023-04-08T10:07:27;23;23;
73623;PMS5003;61921;53.226;-1.296;2023-04-08T10:09:53;25;24;
73623;PMS5003;61921;53.226;-1.296;2023-04-08T10:12:19;24;23;
73623;PMS5003;61921;53.226;-1.296;2023-04-08T10:19:37;28;24;
73623;PMS5003;61921;53.226;-1.296;2023-04-08T10:22:02;33;30;
73623;PMS5003;61921;53.226;-1.296;2023-04-08T10:24:28;26;22;
73623;PMS5003;61921;53.226;-1.296;2023-04-08T10:26:53;21;21;
73623;PMS5003;61921;53.226;-1.296;2023-04-08T10:29:29;22;20;
73623;PMS5003;61921;53.226;-1.296;2023-04-08T10:31:45;25;23;
73623;PMS5003;61921;53.226;-1.296;2023-04-08T10:34:14;27;25;
73623;PMS5003;61921;53.226;-1.296;2023-04-08T10:36:37;27;26;
73623;PMS5003;61921;53.226;-1.296;2023-04-08T10:39:01;25;22;
73623;PMS5003;61921;53.226;-1.296;2023-04-08T10:41:26;23;23;
73623;PMS5003;61921;53.226;-1.296;2023-04-08T10:43:51;21;20;
73623;PMS5003;61921;53.226;-1.296;2023-04-08T10:46:17;23;21;
73623;PMS5003;61921;53.226;-1.296;2023-04-08T10:48:42;23;23;
73623;PMS5003;61921;53.226;-1.296;2023-04-08T10:51:07;22;22;
73623;PMS5003;61921;53.226;-1.296;2023-04-08T10:53:33;22;22;
73623;PMS5003;61921;53.226;-1.296;2023-04-08T10:56:02;21;17;
73623;PMS5003;61921;53.226;-1.296;2023-04-08T10:58:23;23;21;
73623;PMS5003;61921;53.226;-1.296;2023-04-08T11:00:49;22;21;
73623;PMS5003;61921;53.226;-1.296;2023-04-08T11:03:14;24;23;
73623;PMS5003;61921;53.226;-1.296;2023-04-08T11:05:39;27;23;
73623;PMS5003;61921;53.226;-1.296;2023-04-08T11:08:04;28;25;
73623;PMS5003;61921;53.226;-1.296;2023-04-08T11:10:30;23;20;
73623;PMS5003;61921;53.226;-1.296;2023-04-08T11:12:55;20;20;
73623;PMS5003;61921;53.226;-1.296;2023-04-08T11:15:21;24;24;
73623;PMS5003;61921;53.226;-1.296;2023-04-08T11:17:46;25;21;
73623;PMS5003;61921;53.226;-1.296;2023-04-08T11:20:12;22;22;
73623;PMS5003;61921;53.226;-1.296;2023-04-08T11:22:38;24;22;
73623;PMS5003;61921;53.226;-1.296;2023-04-08T11:25:03;21;19;
73623;PMS5003;61921;53.226;-1.296;2023-04-08T11:27:28;23;20;
73623;PMS5003;61921;53.226;-1.296;2023-04-08T11:29:54;20;19;
73623;PMS5003;61921;53.226;-1.296;2023-04-08T11:32:19;19;17;
73623;PMS5003;61921;53.226;-1.296;2023-04-08T11:34:46;22;22;
73623;PMS5003;61921;53.226;-1.296;2023-04-08T11:37:11;19;19;
73623;PMS5003;61921;53.226;-1.296;2023-04-08T11:39:41;19;18;
73623;PMS5003;61921;53.226;-1.296;2023-04-08T11:42:01;21;19;
73623;PMS5003;61921;53.226;-1.296;2023-04-08T11:44:30;23;22;
73623;PMS5003;61921;53.226;-1.296;2023-04-08T11:46:52;26;26;
73623;PMS5003;61921;53.226;-1.296;2023-04-08T11:49:17;22;20;
73623;PMS5003;61921;53.226;-1.296;2023-04-08T11:54:13;15;15;
73623;PMS5003;61921;53.226;-1.296;2023-04-08T11:58:59;15;12;
73623;PMS5003;61921;53.226;-1.296;2023-04-08T12:01:25;23;21;
73623;PMS5003;61921;53.226;-1.296;2023-04-08T12:03:54;21;21;
73623;PMS5003;61921;53.226;-1.296;2023-04-08T12:06:16;19;17;
73623;PMS5003;61921;53.226;-1.296;2023-04-08T12:08:42;17;16;
73623;PMS5003;61921;53.226;-1.296;2023-04-08T12:11:07;18;17;
73623;PMS5003;61921;53.226;-1.296;2023-04-08T12:13:32;20;18;
73623;PMS5003;61921;53.226;-1.296;2023-04-08T12:15:58;18;18;
73623;PMS5003;61921;53.226;-1.296;2023-04-08T12:18:23;21;18;
73623;PMS5003;61921;53.226;-1.296;2023-04-08T12:20:48;18;17;
73623;PMS5003;61921;53.226;-1.296;2023-04-08T12:23:14;18;14;
73623;PMS5003;61921;53.226;-1.296;2023-04-08T12:25:39;14;14;
73623;PMS5003;61921;53.226;-1.296;2023-04-08T12:28:05;17;16;
73623;PMS5003;61921;53.226;-1.296;2023-04-08T12:30:31;16;16;
73623;PMS5003;61921;53.226;-1.296;2023-04-08T12:32:57;18;17;
73623;PMS5003;61921;53.226;-1.296;2023-04-08T12:35:22;17;15;
73623;PMS5003;61921;53.226;-1.296;2023-04-08T12:37:47;16;16;
73623;PMS5003;61921;53.226;-1.296;2023-04-08T12:40:13;15;15;
73623;PMS5003;61921;53.226;-1.296;2023-04-08T12:42:38;15;14;
73623;PMS5003;61921;53.226;-1.296;2023-04-08T12:45:04;19;19;
73623;PMS5003;61921;53.226;-1.296;2023-04-08T12:47:29;20;19;
73623;PMS5003;61921;53.226;-1.296;2023-04-08T12:49:54;13;13;
73623;PMS5003;61921;53.226;-1.296;2023-04-08T12:52:19;15;15;
73623;PMS5003;61921;53.226;-1.296;2023-04-08T12:54:45;15;14;
73623;PMS5003;61921;53.226;-1.296;2023-04-08T12:57:10;13;12;
73623;PMS5003;61921;53.226;-1.296;2023-04-08T12:59:36;16;16;
73623;PMS5003;61921;53.226;-1.296;2023-04-08T13:02:01;20;20;
73623;PMS5003;61921;53.226;-1.296;2023-04-08T13:04:26;28;26;
73623;PMS5003;61921;53.226;-1.296;2023-04-08T13:06:52;19;19;
73623;PMS5003;61921;53.226;-1.296;2023-04-08T13:09:17;17;16;
73623;PMS5003;61921;53.226;-1.296;2023-04-08T13:11:42;17;17;
73623;PMS5003;61921;53.226;-1.296;2023-04-08T13:14:08;15;15;
73623;PMS5003;61921;53.226;-1.296;2023-04-08T13:16:34;16;16;
73623;PMS5003;61921;53.226;-1.296;2023-04-08T13:18:59;22;20;
73623;PMS5003;61921;53.226;-1.296;2023-04-08T13:21:25;19;19;
73623;PMS5003;61921;53.226;-1.296;2023-04-08T13:23:50;18;16;
73623;PMS5003;61921;53.226;-1.296;2023-04-08T13:26:15;18;14;
73623;PMS5003;61921;53.226;-1.296;2023-04-08T13:28:41;14;14;
73623;PMS5003;61921;53.226;-1.296;2023-04-08T13:31:06;15;14;
73623;PMS5003;61921;53.226;-1.296;2023-04-08T13:33:31;13;12;
73623;PMS5003;61921;53.226;-1.296;2023-04-08T13:35:57;13;12;
73623;PMS5003;61921;53.226;-1.296;2023-04-08T13:38:22;18;15;
73623;PMS5003;61921;53.226;-1.296;2023-04-08T13:40:48;13;13;
73623;PMS5003;61921;53.226;-1.296;2023-04-08T13:43:13;20;20;
73623;PMS5003;61921;53.226;-1.296;2023-04-08T13:45:38;17;16;
73623;PMS5003;61921;53.226;-1.296;2023-04-08T13:48:03;21;19;
73623;PMS5003;61921;53.226;-1.296;2023-04-08T13:50:28;15;15;
73623;PMS5003;61921;53.226;-1.296;2023-04-08T13:52:53;13;13;
73623;PMS5003;61921;53.226;-1.296;2023-04-08T13:55:19;17;16;
73623;PMS5003;61921;53.226;-1.296;2023-04-08T13:57:44;16;16;
73623;PMS5003;61921;53.226;-1.296;2023-04-08T14:00:09;17;17;
73623;PMS5003;61921;53.226;-1.296;2023-04-08T14:02:34;13;11;
73623;PMS5003;61921;53.226;-1.296;2023-04-08T14:05:00;15;15;
73623;PMS5003;61921;53.226;-1.296;2023-04-08T14:07:25;17;16;
73623;PMS5003;61921;53.226;-1.296;2023-04-08T14:09:51;14;13;
73623;PMS5003;61921;53.226;-1.296;2023-04-08T14:12:16;20;15;
73623;PMS5003;61921;53.226;-1.296;2023-04-08T14:14:41;14;14;
73623;PMS5003;61921;53.226;-1.296;2023-04-08T14:17:06;15;15;
73623;PMS5003;61921;53.226;-1.296;2023-04-08T14:19:32;13;13;
73623;PMS5003;61921;53.226;-1.296;2023-04-08T14:21:57;15;15;
73623;PMS5003;61921;53.226;-1.296;2023-04-08T14:24:23;15;14;
73623;PMS5003;61921;53.226;-1.296;2023-04-08T14:26:48;15;14;
73623;PMS5003;61921;53.226;-1.296;2023-04-08T14:29:13;19;15;
73623;PMS5003;61921;53.226;-1.296;2023-04-08T14:31:39;17;15;
73623;PMS5003;61921;53.226;-1.296;2023-04-08T14:34:05;15;14;
73623;PMS5003;61921;53.226;-1.296;2023-04-08T14:36:30;17;17;
73623;PMS5003;61921;53.226;-1.296;2023-04-08T14:38:55;16;15;
73623;PMS5003;61921;53.226;-1.296;2023-04-08T14:41:20;15;15;
73623;PMS5003;61921;53.226;-1.296;2023-04-08T14:43:46;15;15;
73623;PMS5003;61921;53.226;-1.296;2023-04-08T14:46:11;16;14;
73623;PMS5003;61921;53.226;-1.296;2023-04-08T14:48:36;13;13;
73623;PMS5003;61921;53.226;-1.296;2023-04-08T14:51:01;14;14;
73623;PMS5003;61921;53.226;-1.296;2023-04-08T14:53:27;15;14;
73623;PMS5003;61921;53.226;-1.296;2023-04-08T14:55:52;15;14;
73623;PMS5003;61921;53.226;-1.296;2023-04-08T14:58:17;15;14;
73623;PMS5003;61921;53.226;-1.296;2023-04-08T15:00:43;15;14;
73623;PMS5003;61921;53.226;-1.296;2023-04-08T15:03:08;12;12;
73623;PMS5003;61921;53.226;-1.296;2023-04-08T15:05:33;16;16;
73623;PMS5003;61921;53.226;-1.296;2023-04-08T15:07:59;14;13;
73623;PMS5003;61921;53.226;-1.296;2023-04-08T15:10:24;16;15;
73623;PMS5003;61921;53.226;-1.296;2023-04-08T15:12:49;16;14;
73623;PMS5003;61921;53.226;-1.296;2023-04-08T15:15:14;17;16;
73623;PMS5003;61921;53.226;-1.296;2023-04-08T15:17:40;15;15;
73623;PMS5003;61921;53.226;-1.296;2023-04-08T15:20:05;15;14;
73623;PMS5003;61921;53.226;-1.296;2023-04-08T15:22:30;12;12;
73623;PMS5003;61921;53.226;-1.296;2023-04-08T15:24:55;12;12;
73623;PMS5003;61921;53.226;-1.296;2023-04-08T15:27:20;12;12;
73623;PMS5003;61921;53.226;-1.296;2023-04-08T15:29:46;16;16;
73623;PMS5003;61921;53.226;-1.296;2023-04-08T15:32:12;14;14;
73623;PMS5003;61921;53.226;-1.296;2023-04-08T15:34:37;14;13;
73623;PMS5003;61921;53.226;-1.296;2023-04-08T15:37:02;13;13;
73623;PMS5003;61921;53.226;-1.296;2023-04-08T15:39:28;10;10;
73623;PMS5003;61921;53.226;-1.296;2023-04-08T15:41:53;13;13;
73623;PMS5003;61921;53.226;-1.296;2023-04-08T15:44:18;20;16;
73623;PMS5003;61921;53.226;-1.296;2023-04-08T15:46:43;13;10;
73623;PMS5003;61921;53.226;-1.296;2023-04-08T15:49:09;13;12;
73623;PMS5003;61921;53.226;-1.296;2023-04-08T15:51:35;13;13;
73623;PMS5003;61921;53.226;-1.296;2023-04-08T15:54:00;12;12;
73623;PMS5003;61921;53.226;-1.296;2023-04-08T15:56:25;14;14;
73623;PMS5003;61921;53.226;-1.296;2023-04-08T15:58:51;14;14;
73623;PMS5003;61921;53.226;-1.296;2023-04-08T16:01:16;18;14;
73623;PMS5003;61921;53.226;-1.296;2023-04-08T16:03:41;15;15;
73623;PMS5003;61921;53.226;-1.296;2023-04-08T16:06:07;12;12;